Usti nad Labem, Czech Republic
Current Conditions -  °F | °C
As of 8:50 AM on Sunday 21 Dec 2014 (Local Time) from EDDC Reporting Station
Broken Clouds Broken Clouds  
Wind Chill: 31°   Ceiling: 3800
Heat Index: 39°   Visibility: 6mi
Dew Point: 34°   Wind: 14mph
Humidity: 81%   Direction: 270°W
Pressure: 30.24"   Gusts: 26mph
Location:  50.7°N, 14.06°E
Report Text: EDDC 210650Z 27012G23KT 9999 FEW015 BKN038 BKN048 04/01 Q1024 NOSIG
Loading
Personal Weather Stations






























Interactive Weather Map New forecast layout! Learn more

10-Day Weather Forecast

Advertisements
Track Severe Weather on mobile